Time;durP1;ratioP1;P1;durP2;ratioP2;P2;SDS_P1;SDS_P2;PMS_P1;PMS_P2;Temp;Humidity;BMP_temperature;BMP_pressure;BME280_temperature;BME280_humidity;BME280_pressure;Samples;Min_cycle;Max_cycle;Signal;HPM_P1;HPM_P2
2022/06/21 00:01:15;;;;;;;7.22;2.78;;;;;;;10.39;89.82;100928.09;6028021;28;20037;-65
2022/06/21 00:04:10;;;;;;;7.13;2.88;;;;;;;10.43;90.11;100928.66;6059510;28;20061;-65
2022/06/21 00:07:09;;;;;;;9.67;3.10;;;;;;;10.33;90.53;100931.28;6030085;28;20038;-65
2022/06/21 00:10:06;;;;;;;9.05;3.00;;;;;;;10.29;90.75;100931.72;6028308;28;20022;-65
2022/06/21 00:13:13;;;;;;;9.30;3.28;;;;;;;10.30;91.06;100928.91;6031080;28;20544;-65
2022/06/21 00:16:11;;;;;;;7.40;3.00;;;;;;;10.45;91.30;100927.53;6026037;28;20405;-65
2022/06/21 00:19:16;;;;;;;7.28;3.50;;;;;;;10.50;90.60;100925.31;6027834;28;20038;-65
2022/06/21 00:22:18;;;;;;;7.10;2.78;;;;;;;10.29;91.08;100945.81;6033339;28;20443;-65
2022/06/21 00:25:24;;;;;;;6.78;3.40;;;;;;;10.09;91.74;100952.88;6025065;28;20038;-65
2022/06/21 00:28:21;;;;;;;8.73;3.05;;;;;;;10.16;92.39;100947.91;6032641;28;20034;-65
2022/06/21 00:31:19;;;;;;;10.13;3.20;;;;;;;10.23;92.13;100953.47;6026305;28;20499;-65
2022/06/21 00:34:17;;;;;;;8.00;4.05;;;;;;;10.14;92.26;100966.56;6027282;28;20030;-65
2022/06/21 00:37:18;;;;;;;10.23;3.15;;;;;;;10.02;91.97;100958.84;6029144;28;20039;-66
2022/06/21 00:40:18;;;;;;;;;;;;;;;9.81;92.17;100968.72;6031977;28;20065;-65
2022/06/21 00:43:20;;;;;;;6.70;2.85;;;;;;;9.67;92.85;100955.84;6031721;28;19920;-65
2022/06/21 00:46:26;;;;;;;11.18;2.75;;;;;;;9.55;93.43;100963.88;6025288;28;20081;-65
2022/06/21 00:49:27;;;;;;;8.02;2.97;;;;;;;9.53;93.72;100957.88;6035284;28;20047;-65
2022/06/21 00:52:38;;;;;;;9.73;3.40;;;;;;;9.70;94.13;100950.28;6025674;28;20042;-65
2022/06/21 00:55:54;;;;;;;9.07;3.15;;;;;;;9.89;93.98;100955.63;6040517;28;20037;-65
2022/06/21 00:58:50;;;;;;;8.60;2.97;;;;;;;9.82;93.68;100950.03;6024475;28;20097;-65
2022/06/21 01:01:46;;;;;;;7.18;3.58;;;;;;;9.89;93.66;100945.03;6024894;28;20038;-65
2022/06/21 01:04:45;;;;;;;9.07;2.95;;;;;;;9.94;93.17;100948.09;6025960;28;20545;-65
2022/06/21 01:07:41;;;;;;;7.35;3.30;;;;;;;9.92;93.08;100940.28;6035474;28;20041;-65
2022/06/21 01:10:38;;;;;;;6.82;3.08;;;;;;;9.95;93.67;100939.16;6034197;28;20026;-65
2022/06/21 01:13:39;;;;;;;9.23;3.60;;;;;;;9.92;93.16;100927.03;6034262;28;20070;-65
2022/06/21 01:16:35;;;;;;;7.85;3.40;;;;;;;9.88;93.38;100932.75;6030829;28;20117;-65
2022/06/21 01:19:45;;;;;;;5.25;3.15;;;;;;;9.59;93.12;100941.44;6034862;28;20418;-65
2022/06/21 01:23:21;;;;;;;7.15;3.47;;;;;;;9.67;94.13;100942.59;6035518;28;20054;-65
2022/06/21 01:27:01;;;;;;;9.50;3.53;;;;;;;9.51;94.28;100940.47;6035201;28;20042;-65
2022/06/21 01:29:57;;;;;;;7.68;3.42;;;;;;;9.36;94.90;100947.91;6016451;28;20512;-65
2022/06/21 01:32:53;;;;;;;6.90;3.90;;;;;;;9.32;95.81;100941.19;6037802;28;20045;-65
2022/06/21 01:35:50;;;;;;;7.30;3.47;;;;;;;9.25;95.83;100940.06;6030262;28;20092;-65
2022/06/21 01:38:52;;;;;;;10.15;3.83;;;;;;;9.44;96.39;100937.50;6032551;28;20022;-65
2022/06/21 01:41:52;;;;;;;5.13;3.38;;;;;;;9.35;95.81;100948.88;6034449;28;20099;-65
2022/06/21 01:44:49;;;;;;;;;;;;;;;9.38;95.62;100945.13;6030854;28;20041;-65
2022/06/21 01:47:58;;;;;;;8.35;3.38;;;;;;;9.41;95.97;100944.84;6029801;28;19910;-65
2022/06/21 01:50:57;;;;;;;7.00;3.38;;;;;;;9.28;95.81;100952.19;6044597;28;20042;-65
2022/06/21 01:53:53;;;;;;;8.98;3.67;;;;;;;9.11;96.24;100958.91;6030035;28;20390;-65
2022/06/21 01:56:48;;;;;;;12.85;3.58;;;;;;;8.98;96.63;100959.13;6028489;28;20035;-65
2022/06/21 01:59:46;;;;;;;10.30;3.83;;;;;;;8.87;96.89;100961.00;6036374;28;20041;-65
2022/06/21 02:02:43;;;;;;;6.30;3.42;;;;;;;8.94;97.07;100964.81;6028814;28;20034;-65
2022/06/21 02:05:43;;;;;;;7.13;2.95;;;;;;;8.73;97.40;100953.38;6027855;28;20026;-65
2022/06/21 02:08:42;;;;;;;9.77;3.67;;;;;;;8.63;98.18;100960.41;6038873;28;20056;-65
2022/06/21 02:11:48;;;;;;;7.53;3.47;;;;;;;8.66;98.09;100957.50;6038941;28;20044;-65
2022/06/21 02:14:47;;;;;;;8.93;3.92;;;;;;;8.52;98.43;100968.38;6027331;28;20358;-65
2022/06/21 02:17:44;;;;;;;11.10;4.47;;;;;;;8.42;98.94;100970.09;6029369;28;20038;-66
2022/06/21 02:20:57;;;;;;;12.07;5.07;;;;;;;8.48;99.52;100969.59;6026641;28;20034;-65
2022/06/21 02:23:54;;;;;;;7.72;3.80;;;;;;;8.45;99.29;100959.28;6031013;28;20036;-65
2022/06/21 02:26:50;;;;;;;8.50;3.75;;;;;;;8.51;99.53;100953.47;6041181;28;20092;-65
2022/06/21 02:29:51;;;;;;;8.63;4.40;;;;;;;8.63;99.53;100965.69;6043950;28;20034;-65
2022/06/21 02:32:47;;;;;;;10.05;3.97;;;;;;;8.87;99.81;100943.31;6031372;28;20030;-65
2022/06/21 02:35:47;;;;;;;11.55;4.40;;;;;;;9.15;100.00;100936.53;6026719;28;20073;-65
2022/06/21 02:38:54;;;;;;;10.32;4.22;;;;;;;9.26;99.95;100925.88;6035361;28;20061;-65
2022/06/21 02:42:13;;;;;;;8.23;4.72;;;;;;;9.29;99.31;100933.53;6027170;28;20077;-65
2022/06/21 02:45:27;;;;;;;9.23;3.85;;;;;;;9.17;98.54;100937.22;6027795;28;20037;-65
2022/06/21 02:48:33;;;;;;;7.95;3.50;;;;;;;9.19;97.94;100956.44;6028145;28;20046;-65
2022/06/21 02:51:34;;;;;;;11.48;4.32;;;;;;;9.16;97.54;100946.13;6041269;28;20509;-65
2022/06/21 02:54:35;;;;;;;9.80;3.50;;;;;;;9.12;97.49;100954.47;6026055;28;20026;-65
2022/06/21 02:57:35;;;;;;;10.18;3.58;;;;;;;9.03;97.63;100958.72;6035084;28;20052;-65
2022/06/21 03:00:31;;;;;;;11.07;3.60;;;;;;;9.14;97.47;100952.50;6042285;28;20093;-65
2022/06/21 03:03:27;;;;;;;8.63;3.93;;;;;;;9.28;98.38;100950.38;6028566;28;20030;-66
2022/06/21 03:06:23;;;;;;;12.95;4.05;;;;;;;9.58;97.60;100944.22;6028905;28;20112;-65
2022/06/21 03:09:20;;;;;;;6.60;3.05;;;;;;;9.47;97.29;100945.16;6029120;28;20030;-65
2022/06/21 03:12:21;;;;;;;7.72;3.33;;;;;;;9.34;96.71;100944.56;6034785;28;20034;-65
2022/06/21 03:15:16;;;;;;;;;;;;;;;9.40;97.08;100944.00;6026460;28;20034;-65
2022/06/21 03:18:16;;;;;;;10.13;3.03;;;;;;;9.30;96.59;100932.56;6037159;28;20300;-65
2022/06/21 03:21:13;;;;;;;11.25;3.63;;;;;;;9.36;96.59;100932.03;6026059;28;20375;-65
2022/06/21 03:24:13;;;;;;;10.75;3.50;;;;;;;9.05;96.21;100932.16;6025938;28;20449;-65
2022/06/21 03:27:21;;;;;;;10.02;3.55;;;;;;;9.12;97.16;100939.44;6025594;28;20486;-66
2022/06/21 03:30:19;;;;;;;12.35;3.58;;;;;;;9.31;96.78;100934.25;6024707;28;20076;-66
2022/06/21 03:33:14;;;;;;;6.10;2.88;;;;;;;9.30;96.70;100948.44;6043026;28;20513;-65
2022/06/21 03:36:13;;;;;;;12.43;4.13;;;;;;;9.54;96.76;100943.66;6027462;28;20038;-65
2022/06/21 03:39:13;;;;;;;9.70;3.22;;;;;;;9.19;95.96;100948.50;6032387;28;20043;-65
2022/06/21 03:42:10;;;;;;;9.73;3.10;;;;;;;8.96;96.78;100944.34;6031235;28;20042;-65
2022/06/21 03:45:12;;;;;;;9.00;3.30;;;;;;;9.01;96.87;100942.16;6029876;28;20041;-65
2022/06/21 03:48:29;;;;;;;5.57;2.90;;;;;;;9.14;97.47;100948.06;6026209;28;20066;-65
2022/06/21 03:51:29;;;;;;;8.45;4.30;;;;;;;9.09;97.11;100936.19;6028737;28;20496;-65
2022/06/21 03:54:41;;;;;;;9.07;3.30;;;;;;;9.17;97.13;100946.97;6025243;28;20034;-65
2022/06/21 03:57:39;;;;;;;8.40;3.42;;;;;;;9.07;97.72;100930.22;6027455;28;20405;-65
2022/06/21 04:00:45;;;;;;;8.70;3.60;;;;;;;9.13;97.57;100943.72;6034710;28;20034;-65
2022/06/21 04:03:52;;;;;;;9.43;4.07;;;;;;;9.22;97.84;100944.75;6057180;28;20040;-65
2022/06/21 04:07:17;;;;;;;8.65;3.55;;;;;;;9.20;98.12;100952.84;6064362;28;20041;-65
2022/06/21 04:10:25;;;;;;;8.48;3.92;;;;;;;9.18;97.49;100960.09;6018676;28;20054;-65
2022/06/21 04:13:34;;;;;;;8.23;3.95;;;;;;;9.17;97.78;100960.19;6035472;28;20436;-65
2022/06/21 04:17:01;;;;;;;7.85;3.38;;;;;;;9.25;97.76;100970.97;6031593;28;20478;-65
2022/06/21 04:20:02;;;;;;;7.60;3.80;;;;;;;9.23;97.44;100968.47;6028134;28;20052;-65
2022/06/21 04:23:16;;;;;;;9.30;3.97;;;;;;;9.50;97.69;100968.72;6027076;28;20042;-65
2022/06/21 04:26:19;;;;;;;11.60;4.07;;;;;;;10.06;98.11;100963.75;6030824;28;20046;-65
2022/06/21 04:29:21;;;;;;;6.45;3.97;;;;;;;10.51;96.79;100969.41;6026734;28;20053;-65
2022/06/21 04:32:21;;;;;;;8.90;2.95;;;;;;;10.82;93.91;100970.09;6025316;28;20034;-65
2022/06/21 04:35:22;;;;;;;11.45;3.30;;;;;;;11.31;91.76;100984.94;6033340;28;20041;-65
2022/06/21 04:38:40;;;;;;;8.35;2.88;;;;;;;11.40;88.91;100968.16;6036396;28;20484;-65
2022/06/21 04:41:40;;;;;;;9.02;2.90;;;;;;;11.76;87.49;100972.66;6038300;28;20415;-65
2022/06/21 04:44:51;;;;;;;9.38;2.65;;;;;;;12.53;86.30;100962.34;6040831;28;20047;-65
2022/06/21 04:48:14;;;;;;;13.70;4.82;;;;;;;12.79;83.32;100973.06;6043802;28;20030;-65
2022/06/21 04:51:25;;;;;;;6.70;2.33;;;;;;;13.16;80.57;100964.03;6019069;28;20038;-65
2022/06/21 04:54:27;;;;;;;7.50;2.17;;;;;;;13.36;80.44;100969.00;6049884;28;20034;-65
2022/06/21 04:57:26;;;;;;;8.85;2.22;;;;;;;13.58;78.03;100965.78;6054431;28;20061;-65
2022/06/21 05:00:21;;;;;;;6.65;2.28;;;;;;;13.75;76.45;100952.53;6035090;28;20038;-65
2022/06/21 05:03:34;;;;;;;4.17;2.10;;;;;;;13.86;77.75;100941.59;6032069;28;20048;-65
2022/06/21 05:06:29;;;;;;;5.88;2.05;;;;;;;14.29;76.75;100936.84;6029040;28;20269;-65
2022/06/21 05:09:28;;;;;;;5.45;1.95;;;;;;;14.71;74.70;100941.25;6029943;28;20030;-65
2022/06/21 05:12:40;;;;;;;8.85;2.45;;;;;;;14.66;72.92;100946.25;6028141;28;20073;-66
2022/06/21 05:15:39;;;;;;;6.53;1.50;;;;;;;15.71;70.31;100952.25;6029195;28;20029;-65
2022/06/21 05:18:47;;;;;;;9.02;2.03;;;;;;;15.38;71.23;100946.16;6030682;28;20034;-65
2022/06/21 05:21:51;;;;;;;8.07;2.00;;;;;;;14.95;71.65;100948.44;6036484;28;20034;-65
2022/06/21 05:24:46;;;;;;;7.80;2.22;;;;;;;15.38;72.18;100959.50;6031697;28;20033;-65
2022/06/21 05:27:47;;;;;;;5.70;2.40;;;;;;;15.90;69.74;100956.34;6038911;28;20042;-65
2022/06/21 05:30:50;;;;;;;7.20;2.00;;;;;;;15.61;70.17;100967.66;6027709;28;20041;-66
2022/06/21 05:34:22;;;;;;;7.50;2.55;;;;;;;15.72;69.51;100974.47;6060804;28;20053;-65
2022/06/21 05:37:27;;;;;;;;;;;;;;;15.76;69.61;100973.16;6052728;28;20047;-65
2022/06/21 05:40:34;;;;;;;4.10;1.60;;;;;;;16.05;67.60;100974.19;6043865;28;19960;-65
2022/06/21 05:43:35;;;;;;;24.52;10.30;;;;;;;16.14;68.35;100964.28;6033378;28;20505;-65
2022/06/21 05:46:33;;;;;;;10.10;2.72;;;;;;;16.43;66.63;100964.41;6045395;28;20030;-65
2022/06/21 05:49:32;;;;;;;6.32;1.83;;;;;;;15.98;68.83;100975.06;6044202;28;20037;-65
2022/06/21 05:52:34;;;;;;;9.73;2.15;;;;;;;16.17;67.29;100969.25;6036133;28;20038;-65
2022/06/21 05:55:43;;;;;;;9.85;1.85;;;;;;;16.54;65.77;100964.03;6027569;28;20030;-66
2022/06/21 05:58:48;;;;;;;9.05;1.90;;;;;;;16.22;67.88;100961.56;6029157;28;20457;-65
2022/06/21 06:01:51;;;;;;;8.50;2.35;;;;;;;16.88;65.35;100962.75;6027475;28;20026;-65
2022/06/21 06:04:51;;;;;;;9.43;2.17;;;;;;;17.20;64.38;100967.84;6027064;28;20156;-65
2022/06/21 06:07:53;;;;;;;7.32;2.00;;;;;;;17.57;62.86;100970.47;6032173;28;20030;-65
2022/06/21 06:10:48;;;;;;;5.95;2.00;;;;;;;17.17;64.30;100979.75;6053418;28;20108;-66
2022/06/21 06:13:44;;;;;;;8.88;1.92;;;;;;;17.62;62.95;100984.16;6039311;28;20038;-65
2022/06/21 06:16:41;;;;;;;8.32;1.77;;;;;;;17.60;62.62;100978.16;6043795;28;20034;-66
2022/06/21 06:19:46;;;;;;;11.15;2.33;;;;;;;16.59;65.68;100984.91;6049275;28;20128;-66
2022/06/21 06:22:47;;;;;;;8.45;2.28;;;;;;;17.00;65.28;100988.09;6026450;28;20492;-66
2022/06/21 06:25:47;;;;;;;6.38;1.70;;;;;;;17.05;65.11;100985.72;6034353;28;20030;-65
2022/06/21 06:28:49;;;;;;;9.80;2.13;;;;;;;17.46;63.61;100992.34;6032132;28;20058;-65
2022/06/21 06:32:11;;;;;;;8.02;2.05;;;;;;;17.82;63.31;100996.00;6026744;28;20041;-65
2022/06/21 06:35:18;;;;;;;9.05;1.92;;;;;;;17.69;63.43;100993.13;6027220;28;20031;-66
2022/06/21 06:38:15;;;;;;;8.10;2.13;;;;;;;17.48;63.23;100986.78;6043247;28;20030;-66
2022/06/21 06:41:19;;;;;;;10.85;2.75;;;;;;;16.58;67.27;101002.81;6028265;28;20044;-65
2022/06/21 06:44:16;;;;;;;9.98;2.15;;;;;;;17.14;65.28;100992.69;6027033;28;20038;-66
2022/06/21 06:47:18;;;;;;;7.72;2.30;;;;;;;16.47;66.59;101008.56;6026543;28;20034;-65
2022/06/21 06:50:27;;;;;;;7.95;1.90;;;;;;;16.15;69.06;101008.72;6026216;28;20034;-65
2022/06/21 06:53:38;;;;;;;11.20;1.95;;;;;;;16.28;68.37;101008.19;6026541;28;20045;-66
2022/06/21 06:56:49;;;;;;;12.30;2.05;;;;;;;16.93;67.97;101003.25;6031036;28;20030;-65
2022/06/21 06:59:44;;;;;;;7.47;1.98;;;;;;;16.73;66.98;101002.06;6020380;28;20038;-66
2022/06/21 07:03:05;;;;;;;9.40;2.25;;;;;;;16.80;67.12;101014.56;6027262;28;20098;-66
2022/06/21 07:06:12;;;;;;;9.93;2.40;;;;;;;16.92;65.39;101013.13;6026302;28;20074;-65
2022/06/21 07:09:51;;;;;;;11.32;1.85;;;;;;;17.01;65.70;101012.03;6027713;28;20034;-66
2022/06/21 07:12:47;;;;;;;8.77;2.20;;;;;;;17.75;62.31;101019.22;5953884;28;20059;-66
2022/06/21 07:15:46;;;;;;;6.55;2.20;;;;;;;17.96;61.78;101017.66;6027652;28;20027;-65
2022/06/21 07:18:46;;;;;;;6.25;2.08;;;;;;;17.71;62.08;101025.16;6025497;28;20038;-66
2022/06/21 07:21:42;;;;;;;11.23;2.13;;;;;;;17.08;63.49;101017.50;6019913;28;20160;-66
2022/06/21 07:24:37;;;;;;;8.30;1.73;;;;;;;17.15;63.21;101018.44;6029274;28;20475;-66
2022/06/21 07:27:35;;;;;;;6.97;2.07;;;;;;;17.49;62.18;101018.81;6032338;28;20618;-66
2022/06/21 07:30:38;;;;;;;7.75;2.20;;;;;;;18.39;62.14;101008.69;6024031;28;20030;-66
2022/06/21 07:33:41;;;;;;;13.48;2.33;;;;;;;17.90;60.03;101013.84;6028813;28;20037;-66
2022/06/21 07:36:41;;;;;;;10.65;2.20;;;;;;;17.26;62.93;101016.16;6035094;28;20113;-66
2022/06/21 07:39:39;;;;;;;9.63;2.05;;;;;;;17.46;62.25;101018.31;6040173;28;20029;-66
2022/06/21 07:42:42;;;;;;;8.40;1.52;;;;;;;17.06;61.39;101014.19;6041069;28;20496;-66
2022/06/21 07:45:57;;;;;;;10.40;2.05;;;;;;;16.91;62.70;101022.16;6046120;28;20470;-65
2022/06/21 07:49:05;;;;;;;10.60;2.10;;;;;;;17.11;63.28;101030.56;6050998;28;20086;-66
2022/06/21 07:52:06;;;;;;;9.73;1.92;;;;;;;17.20;63.97;101022.25;6053594;28;20042;-66
2022/06/21 07:55:06;;;;;;;10.73;1.65;;;;;;;17.77;60.00;101019.03;6024555;28;20068;-66
2022/06/21 07:58:10;;;;;;;9.70;1.77;;;;;;;17.83;60.00;101023.66;6021463;28;20038;-65
2022/06/21 08:07:48;;;;;;;9.15;2.05;;;;;;;16.82;61.77;101025.09;6025045;28;20026;-65
2022/06/21 08:10:55;;;;;;;7.65;1.77;;;;;;;17.31;61.13;101020.16;6029761;28;20027;-65
2022/06/21 08:13:51;;;;;;;9.55;1.77;;;;;;;17.56;59.60;101021.59;6022656;28;20042;-65
2022/06/21 08:17:02;;;;;;;9.05;1.90;;;;;;;17.64;60.42;101022.34;6024200;28;20069;-65
2022/06/21 08:20:32;;;;;;;8.77;1.92;;;;;;;17.68;59.23;101034.41;6024510;28;20041;-65
2022/06/21 08:23:47;;;;;;;6.97;1.77;;;;;;;18.02;57.70;101033.00;5987278;28;20371;-65
2022/06/21 08:26:48;;;;;;;9.85;1.98;;;;;;;18.38;56.17;101039.22;6044932;28;20046;-66
2022/06/21 08:29:50;;;;;;;7.10;1.65;;;;;;;18.60;56.32;101046.34;6023487;28;20076;-65
2022/06/21 08:33:07;;;;;;;10.02;2.17;;;;;;;19.17;56.27;101035.53;6023384;28;20054;-65
2022/06/21 08:36:09;;;;;;;6.18;1.70;;;;;;;18.96;56.06;101036.38;6025219;28;20030;-65
2022/06/21 08:39:21;;;;;;;8.13;1.80;;;;;;;18.65;55.58;101043.91;6025748;28;20058;-65
2022/06/21 08:42:38;;;;;;;5.30;1.65;;;;;;;18.85;54.79;101034.22;6040518;28;20045;-65
2022/06/21 08:45:48;;;;;;;6.95;1.58;;;;;;;18.46;54.10;101025.69;6025025;28;20417;-65
2022/06/21 08:48:46;;;;;;;4.97;1.50;;;;;;;18.70;53.92;101033.41;6023488;28;20125;-65
2022/06/21 08:52:20;;;;;;;6.03;1.80;;;;;;;18.91;53.84;101033.47;6026308;28;20065;-65
2022/06/21 08:55:43;;;;;;;5.38;1.55;;;;;;;19.11;55.34;101020.16;6052629;28;20042;-65
2022/06/21 08:58:49;;;;;;;7.43;1.95;;;;;;;19.09;54.36;101021.38;6024125;28;20440;-65
2022/06/21 09:02:08;;;;;;;3.63;1.20;;;;;;;18.77;56.15;101028.13;6023637;28;20046;-65
2022/06/21 09:05:33;;;;;;;6.57;1.20;;;;;;;18.87;55.00;101036.69;6023643;28;20038;-66
2022/06/21 09:08:50;;;;;;;5.05;1.45;;;;;;;19.33;54.02;101024.50;6031205;28;20597;-65
2022/06/21 09:12:01;;;;;;;6.50;1.30;;;;;;;19.50;50.33;101014.31;6024651;28;20023;-66
2022/06/21 09:15:15;;;;;;;4.95;1.42;;;;;;;19.35;51.62;101022.44;6040445;28;20069;-65
2022/06/21 09:18:35;;;;;;;6.75;1.58;;;;;;;19.47;52.09;101010.16;6025351;28;20038;-65
2022/06/21 09:21:46;;;;;;;3.78;1.50;;;;;;;18.92;52.40;101000.16;6024339;28;20040;-65
2022/06/21 09:24:47;;;;;;;8.63;1.48;;;;;;;19.00;53.39;101013.47;6030038;28;20038;-65
2022/06/21 09:27:48;;;;;;;7.47;1.65;;;;;;;18.59;54.25;101009.75;6027669;28;20045;-65
2022/06/21 09:31:04;;;;;;;8.77;2.05;;;;;;;18.42;54.84;100981.44;6024404;28;20034;-66
2022/06/21 09:34:06;;;;;;;5.55;1.35;;;;;;;18.41;56.21;100998.56;6023399;28;20065;-65
2022/06/21 09:37:59;;;;;;;6.10;1.73;;;;;;;18.98;53.77;101007.44;6025880;28;20715;-65
2022/06/21 09:41:04;;;;;;;6.68;1.40;;;;;;;19.19;55.48;100995.81;6003615;28;20169;-66
2022/06/21 09:44:08;;;;;;;8.00;1.60;;;;;;;19.67;52.62;100994.13;6002605;28;20122;-65
2022/06/21 09:47:21;;;;;;;4.97;1.48;;;;;;;19.57;52.99;101001.72;6027295;28;20038;-66
2022/06/21 09:50:40;;;;;;;7.45;1.40;;;;;;;19.62;52.75;101004.66;6042693;28;20032;-67
2022/06/21 09:54:04;;;;;;;2.53;1.20;;;;;;;19.78;52.11;100996.28;6028854;28;20030;-65
2022/06/21 09:57:26;;;;;;;7.35;1.90;;;;;;;20.06;49.96;100991.63;6044399;28;20125;-67
2022/06/21 10:00:30;;;;;;;7.07;1.63;;;;;;;20.02;49.91;100993.06;6027563;28;20489;-68
2022/06/21 10:03:31;;;;;;;5.82;1.40;;;;;;;20.17;50.06;101003.69;6028066;28;20040;-64
2022/06/21 10:06:37;;;;;;;9.38;1.50;;;;;;;20.37;48.44;100999.25;6028208;28;20111;-64
2022/06/21 10:09:57;;;;;;;7.68;1.60;;;;;;;20.62;48.20;100977.94;6026566;28;20065;-65
2022/06/21 10:13:03;;;;;;;3.40;1.23;;;;;;;19.87;50.94;100978.06;6030272;28;20072;-65
2022/06/21 10:16:29;;;;;;;10.57;1.77;;;;;;;20.24;49.16;100984.88;6026549;28;20038;-65
2022/06/21 10:19:45;;;;;;;4.43;1.38;;;;;;;20.42;52.49;100977.06;6026965;28;20045;-65
2022/06/21 10:23:01;;;;;;;4.05;1.13;;;;;;;20.72;46.00;100975.69;6050986;28;20363;-65
2022/06/21 10:26:18;;;;;;;5.93;1.30;;;;;;;20.67;48.92;100970.91;6028928;28;20062;-65
2022/06/21 10:29:51;;;;;;;6.15;1.48;;;;;;;20.51;48.48;100974.00;6038292;28;20049;-65
2022/06/21 10:33:07;;;;;;;6.60;1.50;;;;;;;20.26;50.12;100977.44;6023865;28;20437;-65
2022/06/21 10:36:06;;;;;;;4.65;1.42;;;;;;;20.87;48.29;100968.25;6026887;28;20030;-65
2022/06/21 10:39:27;;;;;;;6.90;1.80;;;;;;;21.36;48.67;100971.34;6027096;28;20413;-65
2022/06/21 10:42:56;;;;;;;8.40;1.30;;;;;;;20.89;47.08;100958.06;6016054;28;20387;-65
2022/06/21 10:46:02;;;;;;;3.65;1.38;;;;;;;21.29;49.44;100959.72;6028697;28;20037;-65
2022/06/21 10:49:29;;;;;;;6.25;1.40;;;;;;;21.59;45.07;100965.47;6025042;28;20038;-65
2022/06/21 10:52:51;;;;;;;6.55;1.38;;;;;;;21.51;44.74;100956.78;6037561;28;20130;-65
2022/06/21 11:03:12;;;;;;;3.95;1.23;;;;;;;21.44;45.06;100935.22;6052680;28;20038;-65
2022/06/21 11:06:52;;;;;;;4.03;1.27;;;;;;;21.55;43.56;100926.44;6026224;28;20061;-65
2022/06/21 11:10:05;;;;;;;5.40;1.60;;;;;;;21.24;44.81;100924.47;6026113;28;20077;-65
2022/06/21 11:13:04;;;;;;;5.32;1.52;;;;;;;21.36;42.82;100928.16;6026995;28;20069;-65
2022/06/21 11:16:12;;;;;;;6.15;1.48;;;;;;;21.86;44.41;100928.41;6025891;28;20043;-65
2022/06/21 11:19:29;;;;;;;5.13;1.40;;;;;;;21.16;47.20;100930.09;6041960;28;20025;-65
2022/06/21 11:22:45;;;;;;;4.30;1.30;;;;;;;21.60;46.44;100917.72;6026289;28;20041;-65
2022/06/21 11:25:48;;;;;;;3.58;1.30;;;;;;;22.11;43.98;100917.75;6025984;28;20514;-65
2022/06/21 11:28:57;;;;;;;5.45;1.55;;;;;;;22.05;43.82;100905.91;6025701;28;20038;-65
2022/06/21 11:31:59;;;;;;;6.35;1.27;;;;;;;22.02;41.76;100910.91;6025297;28;20042;-65
2022/06/21 11:35:14;;;;;;;5.90;1.42;;;;;;;22.25;45.16;100905.81;6025661;28;20393;-65
2022/06/21 11:38:36;;;;;;;5.18;1.40;;;;;;;21.36;42.56;100906.56;6025745;28;20042;-65
2022/06/21 11:45:05;;;;;;;3.22;1.40;;;;;;;21.58;45.12;100909.03;6027745;28;20030;-66
2022/06/21 11:48:26;;;;;;;5.70;1.42;;;;;;;22.11;42.46;100905.06;6026528;28;20039;-66
2022/06/21 11:51:43;;;;;;;6.40;1.30;;;;;;;22.13;40.95;100892.16;6025591;28;20500;-67
2022/06/21 11:54:46;;;;;;;4.45;1.20;;;;;;;22.45;40.78;100891.09;6035762;28;20034;-66
2022/06/21 11:58:08;;;;;;;5.53;1.20;;;;;;;22.77;40.58;100888.41;6026493;28;20037;-66
2022/06/21 12:01:14;;;;;;;4.30;1.20;;;;;;;23.13;39.74;100883.88;6046137;28;20048;-66
2022/06/21 12:04:21;;;;;;;5.35;1.10;;;;;;;22.83;40.06;100882.13;6028477;28;20045;-66
2022/06/21 12:07:40;;;;;;;5.63;1.05;;;;;;;22.50;40.97;100877.75;6030047;28;20057;-65
2022/06/21 12:10:42;;;;;;;5.57;1.30;;;;;;;22.86;41.15;100876.25;6025416;28;20038;-66
2022/06/21 12:14:09;;;;;;;5.68;1.20;;;;;;;22.98;37.91;100875.31;6027256;28;20042;-65
2022/06/21 12:17:33;;;;;;;5.00;1.02;;;;;;;22.83;38.43;100874.81;6034001;28;20042;-65
2022/06/21 12:20:38;;;;;;;5.68;0.90;;;;;;;22.60;39.59;100871.03;6040450;28;20406;-66
2022/06/21 12:23:41;;;;;;;3.35;1.17;;;;;;;22.48;39.71;100862.81;6035730;28;20045;-66
2022/06/21 12:26:37;;;;;;;3.88;1.13;;;;;;;23.21;38.88;100854.88;6042344;28;20030;-66
2022/06/21 12:29:32;;;;;;;4.18;1.25;;;;;;;22.58;38.70;100849.66;6024746;28;20074;-66
2022/06/21 12:32:28;;;;;;;3.80;0.90;;;;;;;22.51;37.96;100846.97;6026152;28;20061;-65
2022/06/21 12:35:39;;;;;;;2.03;1.00;;;;;;;22.92;38.74;100843.72;6024568;28;20031;-66
2022/06/21 12:38:41;;;;;;;2.90;1.00;;;;;;;22.97;37.06;100837.63;6040436;28;20037;-67
2022/06/21 12:41:43;;;;;;;5.70;1.40;;;;;;;23.72;37.08;100835.53;6032731;28;20066;-66
2022/06/21 12:44:41;;;;;;;2.60;1.13;;;;;;;24.16;38.15;100835.16;6053435;28;20109;-66
2022/06/21 12:47:58;;;;;;;2.55;0.95;;;;;;;23.96;36.79;100834.56;6035739;28;20034;-66
2022/06/21 12:51:12;;;;;;;3.72;0.90;;;;;;;24.13;32.45;100830.19;6033536;28;20045;-66
2022/06/21 12:54:16;;;;;;;4.38;1.23;;;;;;;24.33;34.98;100821.72;6026347;28;20092;-66
2022/06/21 12:57:20;;;;;;;2.90;1.00;;;;;;;24.68;36.42;100818.00;6028017;28;20433;-66
2022/06/21 13:00:18;;;;;;;3.08;1.02;;;;;;;25.03;32.43;100811.78;6026812;28;20506;-66
2022/06/21 13:03:20;;;;;;;3.40;0.90;;;;;;;24.57;33.35;100805.25;6025749;28;20030;-66
2022/06/21 13:06:26;;;;;;;3.75;0.90;;;;;;;24.69;32.48;100808.81;6024701;28;20062;-66
2022/06/21 13:09:33;;;;;;;3.05;0.82;;;;;;;24.48;32.83;100801.25;6040949;28;20030;-66
2022/06/21 13:13:01;;;;;;;1.75;0.80;;;;;;;24.58;31.52;100801.50;6027524;28;20034;-66
2022/06/21 13:16:04;;;;;;;4.20;0.80;;;;;;;24.71;29.55;100801.25;6028233;28;20026;-66
2022/06/21 13:19:25;;;;;;;2.40;1.05;;;;;;;24.63;30.29;100804.31;6031033;28;20502;-66
2022/06/21 13:22:27;;;;;;;2.47;0.82;;;;;;;24.80;29.75;100799.88;6028822;28;20048;-66
2022/06/21 13:25:53;;;;;;;6.43;1.02;;;;;;;24.48;32.22;100792.28;6044465;28;20470;-67
2022/06/21 13:28:56;;;;;;;3.95;0.90;;;;;;;24.92;32.65;100780.03;6045057;28;20046;-67
2022/06/21 13:31:55;;;;;;;4.25;0.90;;;;;;;24.71;30.98;100801.25;6027812;28;20121;-67
2022/06/21 13:34:56;;;;;;;4.65;0.73;;;;;;;24.64;30.81;100789.69;6039890;28;20053;-67
2022/06/21 13:38:17;;;;;;;3.30;0.82;;;;;;;24.98;31.97;100788.03;6028204;28;20034;-67
2022/06/21 13:45:08;;;;;;;;;;;;;;;24.89;32.04;100769.66;5982138;28;20034;-67
2022/06/21 13:48:18;;;;;;;2.28;0.70;;;;;;;24.62;32.61;100767.38;6038183;28;19971;-66
2022/06/21 13:51:13;;;;;;;2.08;0.90;;;;;;;24.79;31.76;100760.22;6032589;28;20030;-67
2022/06/21 13:54:30;;;;;;;1.77;1.10;;;;;;;24.87;30.59;100760.94;6029079;28;20544;-67
2022/06/21 13:58:06;;;;;;;1.40;0.60;;;;;;;24.69;30.19;100745.59;6033896;28;20391;-67
2022/06/21 14:01:06;;;;;;;2.17;0.80;;;;;;;24.90;30.35;100746.88;6018498;28;20508;-67
2022/06/21 14:04:05;;;;;;;1.40;0.80;;;;;;;24.56;31.14;100746.66;6031014;28;20065;-67
2022/06/21 14:07:13;;;;;;;2.03;0.70;;;;;;;24.37;30.90;100739.72;6033813;28;20041;-67
2022/06/21 14:10:33;;;;;;;2.88;0.75;;;;;;;24.63;33.41;100755.50;6036014;28;20382;-67
2022/06/21 14:13:37;;;;;;;6.30;1.40;;;;;;;24.64;32.80;100757.16;6033844;28;20436;-67
2022/06/21 14:16:50;;;;;;;2.65;0.73;;;;;;;24.97;30.62;100753.00;6045746;28;20031;-67
2022/06/21 14:19:59;;;;;;;1.92;0.70;;;;;;;24.98;31.13;100751.91;6029593;28;20129;-67
2022/06/21 14:23:18;;;;;;;5.18;0.85;;;;;;;25.07;30.38;100755.94;6051861;28;20375;-67
2022/06/21 14:26:16;;;;;;;1.83;0.50;;;;;;;25.14;30.01;100745.78;6056145;28;20034;-67
2022/06/21 14:29:22;;;;;;;2.78;0.75;;;;;;;24.81;28.63;100736.38;6064595;28;20060;-67
2022/06/21 14:32:21;;;;;;;1.23;0.70;;;;;;;24.62;29.40;100734.84;6024944;28;20385;-67
2022/06/21 14:35:26;;;;;;;2.85;0.80;;;;;;;25.03;29.96;100736.56;6035117;28;20026;-67
2022/06/21 14:38:27;;;;;;;1.27;0.88;;;;;;;25.31;30.73;100735.78;6034539;28;20477;-67
2022/06/21 14:41:35;;;;;;;1.95;0.80;;;;;;;25.49;29.78;100737.53;6058318;28;20057;-67
2022/06/21 14:44:35;;;;;;;2.50;0.80;;;;;;;25.14;30.88;100740.34;6048835;28;20126;-67
2022/06/21 14:47:46;;;;;;;2.72;1.10;;;;;;;25.01;30.22;100735.16;6046138;28;20040;-67
2022/06/21 14:50:53;;;;;;;2.63;0.63;;;;;;;24.92;29.41;100742.88;6035191;28;20026;-67